createdAt,value
2018-12-22T01:05:59.944Z,12.12
2018-12-22T01:11:03.339Z,12.11
2018-12-22T01:16:06.676Z,12.20
2018-12-22T01:21:10.013Z,12.19
2018-12-22T01:26:13.375Z,12.32
2018-12-22T02:34:44.697Z,12.35
2018-12-22T02:39:48.028Z,12.51
2018-12-22T02:44:51.354Z,12.54
2018-12-22T02:49:55.453Z,12.55
2018-12-22T02:54:58.816Z,12.52
2018-12-22T04:02:18.685Z,12.72
2018-12-22T04:07:22.788Z,12.82
2018-12-22T04:12:26.133Z,12.84
2018-12-22T04:17:30.252Z,13.11
2018-12-22T04:22:34.348Z,12.99
2018-12-22T04:27:37.773Z,13.18
2018-12-22T06:01:24.773Z,13.45
2018-12-22T06:06:28.104Z,13.42
2018-12-22T06:11:32.201Z,13.52
2018-12-22T06:16:35.530Z,13.43
2018-12-22T06:21:39.638Z,13.24
2018-12-22T06:26:44.609Z,13.26
2018-12-22T06:31:48.737Z,13.43
2018-12-22T06:36:52.077Z,13.40
2018-12-22T06:41:56.764Z,13.60
2018-12-22T06:47:00.382Z,13.60
2018-12-22T06:52:03.725Z,13.62
2018-12-22T06:57:07.855Z,13.65
2018-12-22T07:02:15.984Z,13.70
2018-12-22T07:07:21.759Z,13.58
2018-12-22T07:12:25.224Z,13.57
2018-12-22T07:17:28.593Z,13.58
2018-12-22T07:22:32.613Z,13.50
2018-12-22T07:27:35.952Z,13.54
2018-12-22T07:32:39.289Z,13.58
2018-12-22T07:37:42.622Z,13.64
2018-12-22T07:42:46.058Z,13.67
2018-12-22T07:47:49.828Z,13.54
2018-12-22T07:52:54.057Z,13.37
2018-12-22T07:57:59.436Z,13.84
2018-12-22T08:03:01.774Z,13.55
2018-12-22T08:08:06.392Z,13.76
2018-12-22T08:13:10.510Z,13.57
2018-12-22T08:18:16.357Z,13.76
2018-12-22T08:23:19.714Z,13.55
2018-12-22T08:28:23.621Z,13.57
2018-12-22T08:33:30.104Z,13.49
2018-12-22T08:38:35.866Z,13.33
2018-12-22T08:43:40.458Z,13.21
2018-12-22T08:53:57.117Z,13.19
2018-12-22T08:59:01.238Z,13.54
2018-12-22T09:04:04.606Z,13.45
2018-12-22T09:09:08.733Z,13.29
2018-12-22T09:14:12.847Z,13.30
2018-12-22T09:19:16.213Z,13.57
2018-12-22T09:24:19.556Z,13.42
2018-12-22T09:34:36.877Z,13.78
2018-12-22T09:39:40.223Z,13.59
2018-12-22T09:44:43.561Z,13.37
2018-12-22T09:49:46.941Z,13.73
2018-12-22T09:54:50.360Z,13.44
2018-12-22T09:59:53.706Z,13.33
2018-12-22T10:04:57.928Z,13.55
2018-12-22T10:10:02.988Z,13.38
2018-12-22T10:15:06.412Z,13.36
2018-12-22T10:20:15.339Z,13.60
2018-12-22T10:25:18.826Z,13.52
2018-12-22T10:30:22.189Z,13.58
2018-12-22T10:35:30.713Z,13.18
2018-12-22T10:45:46.466Z,13.34
2018-12-22T10:50:49.949Z,13.26
2018-12-22T10:55:53.302Z,13.12
2018-12-22T11:00:56.694Z,13.40
2018-12-22T11:06:00.025Z,13.31
2018-12-22T11:11:03.380Z,13.46
2018-12-22T11:16:06.726Z,13.02
2018-12-22T11:21:10.840Z,13.02
2018-12-22T11:26:14.181Z,13.02
2018-12-22T11:31:17.540Z,13.19
2018-12-22T11:36:20.884Z,13.15
2018-12-22T11:41:24.993Z,13.23
2018-12-22T11:46:28.343Z,13.19
2018-12-22T11:51:31.707Z,13.24
2018-12-22T11:56:35.048Z,12.93
2018-12-22T12:01:48.870Z,13.25
2018-12-22T12:06:52.212Z,12.87
2018-12-22T12:11:56.325Z,12.86
2018-12-22T12:16:59.675Z,12.78
2018-12-22T12:22:03.056Z,12.86
2018-12-22T12:27:06.639Z,12.73
2018-12-22T12:32:10.613Z,12.75
2018-12-22T12:37:14.167Z,13.12
2018-12-22T12:42:19.695Z,13.35
2018-12-22T12:47:24.326Z,13.34
2018-12-22T12:52:30.011Z,12.83
2018-12-22T12:57:34.989Z,12.91
2018-12-22T13:02:38.343Z,13.16
2018-12-22T13:07:42.692Z,12.84
2018-12-22T13:13:17.577Z,13.35
2018-12-22T13:18:21.540Z,13.37
2018-12-22T13:23:25.180Z,13.77
2018-12-22T13:28:28.538Z,13.50
2018-12-22T13:33:31.886Z,12.94
2018-12-22T13:38:42.996Z,13.00
2018-12-22T13:43:47.100Z,13.11
2018-12-22T13:48:50.464Z,13.15
2018-12-22T13:53:53.900Z,13.05
2018-12-22T14:05:36.629Z,13.39
2018-12-22T14:10:40.723Z,12.79
2018-12-22T14:15:44.060Z,13.43
2018-12-22T14:20:48.160Z,13.30
2018-12-22T14:25:51.519Z,13.12
2018-12-22T14:30:54.888Z,12.79
2018-12-22T14:36:11.982Z,12.86
2018-12-22T14:41:15.318Z,13.09
2018-12-22T14:46:18.644Z,12.24
2018-12-22T14:51:21.965Z,11.44
2018-12-22T14:56:28.724Z,11.36
2018-12-22T15:01:32.165Z,11.79
2018-12-22T15:06:41.708Z,12.07
2018-12-22T15:11:45.049Z,11.98
2018-12-22T15:16:50.627Z,11.98
2018-12-22T15:21:53.956Z,12.06
2018-12-22T15:26:57.277Z,11.98
2018-12-22T15:32:00.864Z,12.14
2018-12-22T15:37:04.470Z,12.12
2018-12-22T15:42:07.831Z,12.17
2018-12-22T15:47:11.369Z,12.17
2018-12-22T15:52:15.584Z,12.20
2018-12-22T15:57:19.038Z,12.36
2018-12-22T16:02:23.304Z,12.35
2018-12-22T16:07:26.769Z,12.49
2018-12-22T16:12:30.123Z,11.70
2018-12-22T16:17:33.457Z,11.78
2018-12-22T16:22:36.788Z,11.15
2018-12-22T16:27:42.481Z,11.18
2018-12-22T16:32:46.676Z,10.81
2018-12-22T16:37:49.949Z,10.79
2018-12-22T16:42:53.613Z,10.45
2018-12-22T16:47:56.952Z,10.47
2018-12-22T16:53:01.101Z,10.31
2018-12-22T16:58:06.936Z,10.43
2018-12-22T17:03:11.870Z,9.95
2018-12-22T17:08:15.197Z,9.91
2018-12-22T17:13:30.076Z,9.72
2018-12-22T17:18:47.692Z,9.85
2018-12-22T17:23:56.782Z,10.32
2018-12-22T17:29:00.256Z,10.19
2018-12-22T17:34:06.829Z,10.48
2018-12-22T17:39:36.596Z,10.48
2018-12-22T17:44:34.332Z,10.61
2018-12-22T17:49:37.705Z,10.46
2018-12-22T17:54:41.048Z,10.64
2018-12-22T17:59:44.705Z,10.53
2018-12-22T18:04:48.029Z,10.75
2018-12-22T18:09:52.505Z,10.23
2018-12-22T18:14:56.657Z,10.05
2018-12-22T18:20:00.018Z,10.09
2018-12-22T18:25:04.068Z,10.45
2018-12-22T18:30:08.615Z,10.70
2018-12-22T18:35:15.162Z,10.55
2018-12-22T18:40:20.089Z,10.11
2018-12-22T18:45:28.772Z,10.24
2018-12-22T18:50:33.965Z,10.17
2018-12-22T18:55:39.349Z,10.36
2018-12-22T19:00:43.469Z,10.29
2018-12-22T19:05:46.804Z,10.42
2018-12-22T19:10:50.164Z,10.77
2018-12-22T19:15:56.139Z,10.38
2018-12-22T19:20:59.628Z,10.56
2018-12-22T19:26:11.107Z,10.67
2018-12-22T19:31:16.829Z,10.48
2018-12-22T19:36:21.481Z,10.74
2018-12-22T19:41:25.020Z,10.90
2018-12-22T19:46:28.348Z,10.78
2018-12-22T19:51:31.694Z,11.09
2018-12-22T19:56:35.027Z,11.21
2018-12-22T20:01:51.902Z,10.80
2018-12-22T20:06:56.424Z,10.99
2018-12-22T20:12:02.900Z,10.94
2018-12-22T20:17:07.885Z,11.17
2018-12-22T20:22:13.762Z,11.13
2018-12-22T20:27:17.148Z,11.03
2018-12-22T20:32:27.550Z,11.08
2018-12-22T20:37:31.652Z,11.12
2018-12-22T20:42:57.847Z,11.06
2018-12-22T20:48:01.185Z,11.00
2018-12-22T20:53:04.524Z,10.99
2018-12-22T20:58:07.873Z,10.81
2018-12-22T21:03:11.223Z,11.02
2018-12-22T21:08:14.572Z,10.85
2018-12-22T21:13:18.669Z,10.87
2018-12-22T21:18:22.013Z,10.98
2018-12-22T21:23:26.108Z,10.91
2018-12-22T21:28:29.441Z,11.09
2018-12-22T21:33:32.772Z,10.76
2018-12-22T21:38:36.864Z,10.85
2018-12-22T21:43:40.201Z,10.98
2018-12-22T21:48:43.531Z,10.86
2018-12-22T21:53:47.629Z,10.90
2018-12-22T21:58:50.981Z,11.12
2018-12-22T22:03:54.324Z,10.85
2018-12-22T22:08:57.665Z,10.68
2018-12-22T22:14:01.016Z,10.92
2018-12-22T22:19:04.372Z,11.01
2018-12-22T22:24:07.701Z,10.90
2018-12-22T22:29:11.027Z,10.95
2018-12-22T22:34:15.120Z,10.87
2018-12-22T22:39:18.458Z,10.88
2018-12-22T22:44:21.796Z,11.20
2018-12-22T22:49:25.146Z,10.80
2018-12-22T22:54:28.472Z,10.89
2018-12-22T22:59:31.813Z,11.15
2018-12-22T23:36:13.353Z,11.33
2018-12-22T23:41:17.451Z,11.26
2018-12-22T23:46:20.793Z,10.84
2018-12-22T23:51:24.910Z,10.79
2018-12-22T23:56:28.266Z,10.50
